createdAt,value
2022-09-04T00:00:07.995Z,17.61
2022-09-04T00:02:48.485Z,17.51
2022-09-04T00:05:22.005Z,17.47
2022-09-04T00:08:04.670Z,17.40
2022-09-04T00:10:39.777Z,17.39
2022-09-04T00:13:12.367Z,17.33
2022-09-04T00:15:45.211Z,17.35
2022-09-04T00:18:18.155Z,17.30
2022-09-04T00:20:51.703Z,17.44
2022-09-04T00:23:25.485Z,17.51
2022-09-04T00:25:59.346Z,17.49
2022-09-04T00:28:35.853Z,17.46
2022-09-04T00:31:14.854Z,17.44
2022-09-04T00:33:52.751Z,17.35
2022-09-04T00:36:23.574Z,17.31
2022-09-04T00:38:57.105Z,17.38
2022-09-04T00:41:31.020Z,17.28
2022-09-04T00:44:33.295Z,17.27
2022-09-04T00:47:27.326Z,17.27
2022-09-04T00:50:18.963Z,17.26
2022-09-04T00:53:02.414Z,17.24
2022-09-04T00:55:55.820Z,17.23
2022-09-04T00:58:49.487Z,17.16
2022-09-04T01:01:25.867Z,17.15
2022-09-04T01:04:24.607Z,17.08
2022-09-04T01:07:05.979Z,17.11
2022-09-04T01:09:57.158Z,17.13
2022-09-04T01:12:36.517Z,17.12
2022-09-04T01:15:14.596Z,17.05
2022-09-04T01:17:53.382Z,17.03
2022-09-04T01:20:32.283Z,17.02
2022-09-04T01:23:13.473Z,17.01
2022-09-04T01:25:56.730Z,17.10
2022-09-04T01:28:31.063Z,17.02
2022-09-04T01:31:08.465Z,16.96
2022-09-04T01:33:46.268Z,16.96
2022-09-04T01:36:22.716Z,16.95
2022-09-04T01:38:55.043Z,16.86
2022-09-04T01:41:29.246Z,16.90
2022-09-04T01:43:57.187Z,16.88
2022-09-04T01:46:58.158Z,16.91
2022-09-04T01:49:35.688Z,16.91
2022-09-04T01:52:36.637Z,16.92
2022-09-04T01:55:15.168Z,16.90
2022-09-04T01:58:03.900Z,16.87
2022-09-04T02:00:39.577Z,16.82
2022-09-04T02:03:16.140Z,16.78
2022-09-04T02:05:55.177Z,16.84
2022-09-04T02:08:36.479Z,16.83
2022-09-04T02:11:10.084Z,16.82
2022-09-04T02:13:56.406Z,16.76
2022-09-04T02:16:35.369Z,16.74
2022-09-04T02:19:13.432Z,16.73
2022-09-04T02:21:49.368Z,16.72
2022-09-04T02:24:25.462Z,16.72
2022-09-04T02:27:01.297Z,16.81
2022-09-04T02:29:36.523Z,16.76
2022-09-04T02:32:12.870Z,16.74
2022-09-04T02:34:49.261Z,16.68
2022-09-04T02:37:29.399Z,16.65
2022-09-04T02:40:11.988Z,16.59
2022-09-04T02:42:49.066Z,16.64
2022-09-04T02:45:28.136Z,16.55
2022-09-04T02:48:04.119Z,16.58
2022-09-04T02:50:46.219Z,16.58
2022-09-04T02:53:27.348Z,16.59
2022-09-04T02:56:10.909Z,16.59
2022-09-04T02:58:51.270Z,16.61
2022-09-04T03:01:27.682Z,16.58
2022-09-04T03:04:03.899Z,16.60
2022-09-04T03:06:49.505Z,16.54
2022-09-04T03:09:25.049Z,16.50
2022-09-04T03:12:01.580Z,16.53
2022-09-04T03:14:37.217Z,16.52
2022-09-04T03:17:14.657Z,16.55
2022-09-04T03:19:51.947Z,16.46
2022-09-04T03:22:25.252Z,16.50
2022-09-04T03:25:26.692Z,16.53
2022-09-04T03:27:54.581Z,16.49
2022-09-04T03:30:22.575Z,16.48
2022-09-04T03:33:03.009Z,16.44
2022-09-04T03:35:41.052Z,16.41
2022-09-04T03:38:20.784Z,16.44
2022-09-04T03:41:03.207Z,16.40
2022-09-04T03:43:51.109Z,16.39
2022-09-04T03:46:30.800Z,16.34
2022-09-04T03:49:16.584Z,16.34
2022-09-04T03:52:00.481Z,16.31
2022-09-04T03:54:45.042Z,16.18
2022-09-04T03:57:27.454Z,16.16
2022-09-04T04:00:06.168Z,16.11
2022-09-04T04:02:48.133Z,16.15
2022-09-04T04:05:37.232Z,16.15
2022-09-04T04:08:31.103Z,16.23
2022-09-04T04:11:10.444Z,16.22
2022-09-04T04:13:55.339Z,16.25
2022-09-04T04:16:40.870Z,16.22
2022-09-04T04:19:23.862Z,16.22
2022-09-04T04:22:05.505Z,16.17
2022-09-04T04:24:57.586Z,16.15
2022-09-04T04:27:44.360Z,16.14
2022-09-04T04:30:15.534Z,16.06
2022-09-04T04:33:01.541Z,16.11
2022-09-04T04:35:36.779Z,16.11
2022-09-04T04:38:19.531Z,16.19
2022-09-04T04:41:06.382Z,16.12
2022-09-04T04:43:47.516Z,16.15
2022-09-04T04:46:20.494Z,16.18
2022-09-04T04:49:05.495Z,16.18
2022-09-04T04:51:51.670Z,16.21
2022-09-04T04:54:33.160Z,16.12
2022-09-04T04:57:09.104Z,16.07
2022-09-04T04:59:47.849Z,16.13
2022-09-04T05:02:24.012Z,16.13
2022-09-04T05:05:13.997Z,16.10
2022-09-04T05:07:49.397Z,16.09
2022-09-04T05:10:24.258Z,16.16
2022-09-04T05:13:03.208Z,16.10
2022-09-04T05:15:58.109Z,15.98
2022-09-04T05:18:33.101Z,16.10
2022-09-04T05:21:10.241Z,16.09
2022-09-04T05:23:45.017Z,16.18
2022-09-04T05:26:23.478Z,16.24
2022-09-04T05:28:59.541Z,16.31
2022-09-04T05:31:38.390Z,16.28
2022-09-04T05:34:12.779Z,16.36
2022-09-04T05:36:51.564Z,16.32
2022-09-04T05:39:27.725Z,16.31
2022-09-04T05:42:07.992Z,16.36
2022-09-04T05:44:46.343Z,16.40
2022-09-04T05:47:30.331Z,16.36
2022-09-04T05:50:14.158Z,16.43
2022-09-04T05:52:58.072Z,16.51
2022-09-04T05:55:52.688Z,16.51
2022-09-04T05:58:46.133Z,16.59
2022-09-04T06:01:29.942Z,16.75
2022-09-04T06:04:25.940Z,16.76
2022-09-04T06:07:06.670Z,16.76
2022-09-04T06:09:49.458Z,16.70
2022-09-04T06:12:36.699Z,16.91
2022-09-04T06:15:16.050Z,17.05
2022-09-04T06:18:16.679Z,17.13
2022-09-04T06:20:59.364Z,17.17
2022-09-04T06:23:51.349Z,17.18
2022-09-04T06:26:43.722Z,17.22
2022-09-04T06:29:41.153Z,17.40
2022-09-04T06:32:32.151Z,17.43
2022-09-04T06:35:27.097Z,17.56
2022-09-04T06:38:09.111Z,17.65
2022-09-04T06:40:49.793Z,17.71
2022-09-04T06:43:29.671Z,17.75
2022-09-04T06:46:09.783Z,17.84
2022-09-04T06:48:51.154Z,17.93
2022-09-04T06:51:32.444Z,18.07
2022-09-04T06:54:11.331Z,18.22
2022-09-04T06:57:05.858Z,18.28
2022-09-04T06:59:55.072Z,18.29
2022-09-04T07:02:45.015Z,18.38
2022-09-04T07:05:25.392Z,18.45
2022-09-04T07:08:02.692Z,18.47
2022-09-04T07:10:34.660Z,18.49
2022-09-04T07:13:29.153Z,18.67
2022-09-04T07:16:10.805Z,18.85
2022-09-04T07:18:55.525Z,20.07
2022-09-04T07:21:33.562Z,21.98
2022-09-04T07:24:07.191Z,23.14
2022-09-04T07:26:41.002Z,24.76
2022-09-04T07:29:33.313Z,25.88
2022-09-04T07:32:08.755Z,26.50
2022-09-04T07:34:45.041Z,27.11
2022-09-04T07:37:27.358Z,27.29
2022-09-04T07:40:08.347Z,27.66
2022-09-04T07:42:42.988Z,27.44
2022-09-04T07:45:23.212Z,27.34
2022-09-04T07:47:59.302Z,27.55
2022-09-04T07:50:35.328Z,27.71
2022-09-04T07:53:20.215Z,27.57
2022-09-04T07:55:50.892Z,27.95
2022-09-04T07:58:33.195Z,28.11
2022-09-04T08:01:24.351Z,28.59
2022-09-04T08:04:10.219Z,28.76
2022-09-04T08:06:45.706Z,29.03
2022-09-04T08:09:33.693Z,29.15
2022-09-04T08:12:44.825Z,28.39
2022-09-04T08:15:20.012Z,28.47
2022-09-04T08:18:11.736Z,28.75
2022-09-04T08:20:46.929Z,29.12
2022-09-04T08:23:41.588Z,29.47
2022-09-04T08:26:21.044Z,29.63
2022-09-04T08:29:15.844Z,30.43
2022-09-04T08:31:52.548Z,30.83
2022-09-04T08:34:47.735Z,30.31
2022-09-04T08:37:26.047Z,29.72
2022-09-04T08:40:11.990Z,28.39
2022-09-04T08:43:16.506Z,28.55
2022-09-04T08:46:29.058Z,28.63
2022-09-04T08:49:46.425Z,28.60
2022-09-04T08:52:45.123Z,29.49
2022-09-04T08:55:41.224Z,29.88
2022-09-04T08:58:47.615Z,29.78
2022-09-04T09:02:03.505Z,31.12
2022-09-04T09:05:18.634Z,31.59
2022-09-04T09:08:17.121Z,31.81
2022-09-04T09:11:03.754Z,32.10
2022-09-04T09:14:01.304Z,30.82
2022-09-04T09:16:43.838Z,31.22
2022-09-04T09:19:33.978Z,31.35
2022-09-04T09:22:50.311Z,30.32
2022-09-04T09:25:21.251Z,30.73
2022-09-04T09:28:24.772Z,30.77
2022-09-04T09:31:17.083Z,30.32
2022-09-04T09:34:15.374Z,30.01
2022-09-04T09:37:17.913Z,30.06
2022-09-04T09:40:14.313Z,28.93
2022-09-04T09:43:00.175Z,28.35
2022-09-04T09:46:10.701Z,27.37
2022-09-04T09:49:14.797Z,26.93
2022-09-04T09:52:09.629Z,26.15
2022-09-04T09:55:04.543Z,26.26
2022-09-04T09:57:55.810Z,26.52
2022-09-04T10:00:27.644Z,26.48
2022-09-04T10:03:35.120Z,26.47
2022-09-04T10:06:34.108Z,26.02
2022-09-04T10:09:31.220Z,26.27
2022-09-04T10:12:41.028Z,26.13
2022-09-04T10:15:37.656Z,26.06
2022-09-04T10:18:47.372Z,26.42
2022-09-04T10:22:07.767Z,26.49
2022-09-04T10:25:11.143Z,26.33
2022-09-04T10:28:26.030Z,26.28
2022-09-04T10:31:30.286Z,26.27
2022-09-04T10:34:24.131Z,26.15
2022-09-04T10:37:02.777Z,25.74
2022-09-04T10:40:04.899Z,25.90
2022-09-04T10:42:43.463Z,26.04
2022-09-04T10:45:22.247Z,26.14
2022-09-04T10:48:32.187Z,26.13
2022-09-04T10:51:22.316Z,26.11
2022-09-04T10:54:16.896Z,25.81
2022-09-04T10:56:55.298Z,26.05
2022-09-04T10:59:48.861Z,26.04
2022-09-04T11:02:34.929Z,25.78
2022-09-04T11:05:39.519Z,25.60
2022-09-04T11:08:27.585Z,25.47
2022-09-04T11:11:18.098Z,25.49
2022-09-04T11:14:30.905Z,25.34
2022-09-04T11:17:30.656Z,25.29
2022-09-04T11:20:25.519Z,24.98
2022-09-04T11:23:32.761Z,25.07
2022-09-04T11:26:47.780Z,25.23
2022-09-04T11:29:56.118Z,25.30
2022-09-04T11:33:02.978Z,25.16
2022-09-04T11:35:56.169Z,25.23
2022-09-04T11:39:08.422Z,25.23
2022-09-04T11:42:06.007Z,24.97
2022-09-04T11:44:52.187Z,25.06
2022-09-04T11:47:44.084Z,25.19
2022-09-04T11:50:24.272Z,25.22
2022-09-04T11:53:27.548Z,25.39
2022-09-04T11:56:12.782Z,25.31
2022-09-04T11:59:13.072Z,25.43
2022-09-04T12:02:03.834Z,25.47
2022-09-04T12:05:04.945Z,25.36
2022-09-04T12:07:49.579Z,25.23
2022-09-04T12:10:56.846Z,25.21
2022-09-04T12:13:40.119Z,25.33
2022-09-04T12:16:49.157Z,25.42
2022-09-04T12:19:51.688Z,25.44
2022-09-04T12:22:52.504Z,25.69
2022-09-04T12:25:53.964Z,25.55
2022-09-04T12:28:45.173Z,25.66
2022-09-04T12:31:34.269Z,25.79
2022-09-04T12:34:28.068Z,25.64
2022-09-04T12:37:27.584Z,25.65
2022-09-04T12:40:25.182Z,25.59
2022-09-04T12:43:02.744Z,25.61
2022-09-04T12:45:44.545Z,25.58
2022-09-04T12:48:26.299Z,25.66
2022-09-04T12:51:01.969Z,25.77
2022-09-04T12:53:54.676Z,25.65
2022-09-04T12:56:31.606Z,25.59
2022-09-04T12:59:19.129Z,25.70
2022-09-04T13:02:01.298Z,25.70
2022-09-04T13:04:39.296Z,25.63
2022-09-04T13:07:29.590Z,25.60
2022-09-04T13:10:08.978Z,25.58
2022-09-04T13:12:46.443Z,25.57
2022-09-04T13:15:24.388Z,25.44
2022-09-04T13:18:06.950Z,25.44
2022-09-04T13:20:44.003Z,25.46
2022-09-04T13:23:35.289Z,25.54
2022-09-04T13:26:29.776Z,25.71
2022-09-04T13:29:12.408Z,25.97
2022-09-04T13:31:54.992Z,25.99
2022-09-04T13:38:31.215Z,26.17
2022-09-04T13:41:30.178Z,26.21
2022-09-04T13:44:30.502Z,26.31
2022-09-04T13:47:04.585Z,26.28
2022-09-04T13:49:40.050Z,26.58
2022-09-04T13:52:13.410Z,26.73
2022-09-04T13:54:48.123Z,26.73
2022-09-04T13:57:21.034Z,26.66
2022-09-04T13:59:51.519Z,26.61
2022-09-04T14:02:24.552Z,26.57
2022-09-04T14:04:57.601Z,26.48
2022-09-04T14:07:29.370Z,26.55
2022-09-04T14:10:04.288Z,26.71
2022-09-04T14:13:07.040Z,26.23
2022-09-04T14:16:04.119Z,26.18
2022-09-04T14:18:50.807Z,26.20
2022-09-04T14:21:34.712Z,26.15
2022-09-04T14:24:12.104Z,26.11
2022-09-04T14:27:11.385Z,26.00
2022-09-04T14:29:54.240Z,25.96
2022-09-04T14:32:32.274Z,25.90
2022-09-04T14:35:10.383Z,25.96
2022-09-04T14:37:54.159Z,25.93
2022-09-04T14:40:28.102Z,25.90
2022-09-04T14:43:04.626Z,25.82
2022-09-04T14:45:55.342Z,25.76
2022-09-04T14:48:24.314Z,25.85
2022-09-04T14:50:54.766Z,25.83
2022-09-04T14:53:27.303Z,25.83
2022-09-04T14:56:18.657Z,25.86
2022-09-04T14:58:55.214Z,25.81
2022-09-04T15:01:25.420Z,25.96
2022-09-04T15:04:00.158Z,26.03
2022-09-04T15:06:41.032Z,25.97
2022-09-04T15:09:23.269Z,25.92
2022-09-04T15:12:08.905Z,26.02
2022-09-04T15:14:46.733Z,26.10
2022-09-04T15:17:24.371Z,26.18
2022-09-04T15:19:58.754Z,26.11
2022-09-04T15:22:32.674Z,26.20
2022-09-04T15:25:05.626Z,26.19
2022-09-04T15:27:43.387Z,26.27
2022-09-04T15:30:20.702Z,26.26
2022-09-04T15:32:50.498Z,26.33
2022-09-04T15:35:24.320Z,26.27
2022-09-04T15:38:07.372Z,26.32
2022-09-04T15:40:39.083Z,26.36
2022-09-04T15:43:18.699Z,26.22
2022-09-04T15:45:58.779Z,26.12
2022-09-04T15:48:37.980Z,25.86
2022-09-04T15:51:19.085Z,25.91
2022-09-04T15:53:54.111Z,25.98
2022-09-04T15:56:34.995Z,26.10
2022-09-04T15:59:12.168Z,26.20
2022-09-04T16:01:50.905Z,26.30
2022-09-04T16:04:29.567Z,26.03
2022-09-04T16:07:20.658Z,25.87
2022-09-04T16:09:53.485Z,25.73
2022-09-04T16:12:25.086Z,25.62
2022-09-04T16:14:59.993Z,25.60
2022-09-04T16:17:34.669Z,25.56
2022-09-04T16:20:08.350Z,25.41
2022-09-04T16:22:44.602Z,25.34
2022-09-04T16:25:26.420Z,25.39
2022-09-04T16:28:02.344Z,25.40
2022-09-04T16:30:35.180Z,25.36
2022-09-04T16:33:20.540Z,25.38
2022-09-04T16:36:00.107Z,25.38
2022-09-04T16:38:33.395Z,25.36
2022-09-04T16:41:10.996Z,25.29
2022-09-04T16:43:39.463Z,25.30
2022-09-04T16:46:13.628Z,25.34
2022-09-04T16:48:53.574Z,25.30
2022-09-04T16:51:40.020Z,25.27
2022-09-04T16:54:18.287Z,25.28
2022-09-04T16:56:50.880Z,25.28
2022-09-04T16:59:26.140Z,25.18
2022-09-04T17:02:01.776Z,25.04
2022-09-04T17:04:40.131Z,25.01
2022-09-04T17:07:19.121Z,24.88
2022-09-04T17:09:56.680Z,24.82
2022-09-04T17:12:35.013Z,24.76
2022-09-04T17:15:14.258Z,24.68
2022-09-04T17:17:43.381Z,24.63
2022-09-04T17:20:23.364Z,24.59
2022-09-04T17:28:58.634Z,24.50
2022-09-04T17:29:10.937Z,24.44
2022-09-04T17:29:29.622Z,24.37
2022-09-04T17:31:53.838Z,24.28
2022-09-04T17:40:42.888Z,24.22
2022-09-04T17:40:51.619Z,24.03
2022-09-04T17:40:54.775Z,24.17
2022-09-04T17:43:24.177Z,24.02
2022-09-04T17:46:07.695Z,23.97
2022-09-04T17:48:41.958Z,23.95
2022-09-04T17:51:18.058Z,23.92
2022-09-04T17:53:53.416Z,23.90
2022-09-04T17:56:27.574Z,23.82
2022-09-04T17:59:03.383Z,23.66
2022-09-04T18:01:37.663Z,23.70
2022-09-04T18:04:22.622Z,23.66
2022-09-04T18:07:00.246Z,23.54
2022-09-04T18:09:38.020Z,23.48
2022-09-04T18:12:12.757Z,23.43
2022-09-04T18:14:53.148Z,23.40
2022-09-04T18:17:45.849Z,23.30
2022-09-04T18:20:24.280Z,23.20
2022-09-04T18:23:18.172Z,23.18
2022-09-04T18:25:52.384Z,23.14
2022-09-04T18:28:27.926Z,23.05
2022-09-04T18:37:08.540Z,23.04
2022-09-04T18:37:21.334Z,22.94
2022-09-04T18:37:44.085Z,22.86
2022-09-04T18:40:09.451Z,22.87
2022-09-04T18:50:20.387Z,22.85
2022-09-04T18:50:33.640Z,22.66
2022-09-04T18:50:53.242Z,22.76
2022-09-04T18:51:30.538Z,22.61
2022-09-04T18:54:04.143Z,22.63
2022-09-04T18:56:37.094Z,22.59
2022-09-04T18:59:12.246Z,22.49
2022-09-04T19:01:44.315Z,22.50
2022-09-04T19:04:36.174Z,22.42
2022-09-04T19:07:08.300Z,22.44
2022-09-04T19:09:56.940Z,22.39
2022-09-04T19:12:33.648Z,22.29
2022-09-04T19:15:36.269Z,22.28
2022-09-04T19:18:14.303Z,22.16
2022-09-04T19:20:54.180Z,22.18
2022-09-04T19:23:30.342Z,22.08
2022-09-04T19:26:03.215Z,22.08
2022-09-04T19:28:50.913Z,22.06
2022-09-04T19:31:32.883Z,22.08
2022-09-04T19:34:08.815Z,22.04
2022-09-04T19:36:43.775Z,21.96
2022-09-04T19:45:55.600Z,21.95
2022-09-04T19:45:59.171Z,21.94
2022-09-04T19:46:26.240Z,21.82
2022-09-04T19:48:21.460Z,21.81
2022-09-04T19:53:22.657Z,21.75
2022-09-04T19:53:55.159Z,21.71
2022-09-04T19:56:32.615Z,21.73
2022-09-04T19:59:27.256Z,21.68
2022-09-04T20:01:58.217Z,21.66
2022-09-04T20:04:41.237Z,21.66
2022-09-04T20:07:14.168Z,21.60
2022-09-04T20:09:47.175Z,21.58
2022-09-04T20:12:22.171Z,21.56
2022-09-04T20:14:55.251Z,21.40
2022-09-04T20:17:45.891Z,21.41
2022-09-04T20:20:21.407Z,21.41
2022-09-04T20:22:53.293Z,21.38
2022-09-04T20:25:46.663Z,21.31
2022-09-04T20:28:30.298Z,21.30
2022-09-04T20:31:28.736Z,21.27
2022-09-04T20:34:16.755Z,21.16
2022-09-04T20:36:51.241Z,21.07
2022-09-04T20:39:24.704Z,21.08
2022-09-04T20:41:59.573Z,21.05
2022-09-04T20:44:51.117Z,20.93
2022-09-04T20:52:45.303Z,20.95
2022-09-04T20:52:58.849Z,20.91
2022-09-04T20:53:30.708Z,20.91
2022-09-04T20:56:18.856Z,20.91
2022-09-04T21:03:05.247Z,20.91
2022-09-04T21:03:18.655Z,20.78
2022-09-04T21:05:33.784Z,20.79
2022-09-04T21:08:09.111Z,20.79
2022-09-04T21:10:48.346Z,20.74
2022-09-04T21:13:22.523Z,20.65
2022-09-04T21:16:00.257Z,20.62
2022-09-04T21:19:28.192Z,20.65
2022-09-04T21:22:14.073Z,20.64
2022-09-04T21:25:20.053Z,20.62
2022-09-04T21:28:07.329Z,20.50
2022-09-04T21:31:10.501Z,20.50
2022-09-04T21:33:48.366Z,20.37
2022-09-04T21:36:26.343Z,20.40
2022-09-04T21:39:38.576Z,20.44
2022-09-04T21:42:24.429Z,20.38
2022-09-04T21:45:34.456Z,20.29
2022-09-04T21:48:33.042Z,20.37
2022-09-04T21:51:28.773Z,20.39
2022-09-04T21:54:38.338Z,20.38
2022-09-04T22:02:27.020Z,20.39
2022-09-04T22:02:46.278Z,20.37
2022-09-04T22:03:36.233Z,20.41
2022-09-04T22:06:29.281Z,20.38
2022-09-04T22:13:34.659Z,20.43
2022-09-04T22:13:42.620Z,20.49
2022-09-04T22:15:00.519Z,20.53
2022-09-04T22:17:54.365Z,20.55
2022-09-04T22:20:42.261Z,20.53
2022-09-04T22:23:50.961Z,20.47
2022-09-04T22:26:45.414Z,20.45
2022-09-04T22:29:40.045Z,20.40
2022-09-04T22:32:40.389Z,20.48
2022-09-04T22:35:44.543Z,20.44
2022-09-04T22:38:35.040Z,20.46
2022-09-04T22:41:22.525Z,20.40
2022-09-04T22:44:00.848Z,20.46
2022-09-04T22:46:43.788Z,20.40
2022-09-04T22:49:33.855Z,20.44
2022-09-04T22:52:35.712Z,20.42
2022-09-04T22:55:39.696Z,20.40
2022-09-04T22:58:19.986Z,20.38
2022-09-04T23:01:05.124Z,20.44
2022-09-04T23:03:47.346Z,20.50
2022-09-04T23:10:26.774Z,20.46
2022-09-04T23:13:58.088Z,20.47
2022-09-04T23:13:59.988Z,20.52
2022-09-04T23:16:34.353Z,20.56
2022-09-04T23:20:50.189Z,20.53
2022-09-04T23:26:47.170Z,20.46
2022-09-04T23:26:48.658Z,20.38
2022-09-04T23:28:39.644Z,20.35
2022-09-04T23:31:39.648Z,20.39
2022-09-04T23:34:26.408Z,20.31
2022-09-04T23:37:10.479Z,20.30
2022-09-04T23:40:20.895Z,20.30
2022-09-04T23:43:07.561Z,20.25
2022-09-04T23:46:08.130Z,20.24
2022-09-04T23:49:11.160Z,20.18
2022-09-04T23:51:46.689Z,20.13
2022-09-04T23:54:49.144Z,20.02
2022-09-04T23:57:27.552Z,19.89
